createdAt,value
2018-08-19T00:01:12.470Z,100520.30
2018-08-19T00:03:40.994Z,100523.04
2018-08-19T00:06:09.975Z,100516.96
2018-08-19T00:08:38.503Z,100516.16
2018-08-19T00:11:09.159Z,100508.18
2018-08-19T00:13:38.823Z,100513.50
2018-08-19T00:16:08.794Z,100512.21
2018-08-19T00:18:37.714Z,100507.42
2018-08-19T00:21:10.871Z,100512.33
2018-08-19T00:23:44.749Z,100509.67
2018-08-19T00:26:15.027Z,100506.25
2018-08-19T00:28:43.481Z,100500.05
2018-08-19T00:31:12.089Z,100504.56
2018-08-19T00:33:40.642Z,100504.20
2018-08-19T00:36:24.094Z,100498.61
2018-08-19T00:38:53.043Z,100497.88
2018-08-19T00:41:21.653Z,100498.88
2018-08-19T00:43:50.158Z,100507.30
2018-08-19T00:46:25.871Z,100500.95
2018-08-19T00:48:54.603Z,100499.62
2018-08-19T00:51:23.189Z,100497.03
2018-08-19T00:53:51.679Z,100493.05
2018-08-19T00:56:20.276Z,100490.48
2018-08-19T00:58:48.835Z,100484.84
2018-08-19T01:01:29.824Z,100484.92
2018-08-19T01:03:59.022Z,100487.73
2018-08-19T01:06:27.583Z,100481.63
2018-08-19T01:08:56.099Z,100479.49
2018-08-19T01:11:34.267Z,100483.52
2018-08-19T01:14:05.810Z,100484.96
2018-08-19T01:16:34.280Z,100480.17
2018-08-19T01:19:03.220Z,100478.48
2018-08-19T01:21:32.976Z,100478.55
2018-08-19T01:24:02.604Z,100475.58
2018-08-19T01:26:35.110Z,100481.00
2018-08-19T01:29:03.950Z,100479.75
2018-08-19T01:31:32.410Z,100483.84
2018-08-19T01:34:00.953Z,100479.46
2018-08-19T01:36:30.585Z,100476.00
2018-08-19T01:38:59.043Z,100475.19
2018-08-19T01:41:27.503Z,100473.94
2018-08-19T01:44:04.237Z,100470.48
2018-08-19T01:46:35.555Z,100476.75
2018-08-19T01:49:04.054Z,100475.49
2018-08-19T01:51:32.600Z,100477.82
2018-08-19T01:54:05.814Z,100474.31
2018-08-19T01:56:34.872Z,100474.87
2018-08-19T01:59:03.419Z,100481.14
2018-08-19T02:01:47.108Z,100481.18
2018-08-19T02:04:15.737Z,100482.62
2018-08-19T02:06:44.707Z,100482.80
2018-08-19T02:09:14.828Z,100487.00
2018-08-19T02:11:47.723Z,100477.78
2018-08-19T02:14:17.408Z,100477.05
2018-08-19T02:16:46.327Z,100481.88
2018-08-19T02:19:14.876Z,100485.85
2018-08-19T02:21:44.113Z,100477.08
2018-08-19T02:24:13.207Z,100481.50
2018-08-19T02:26:41.818Z,100481.58
2018-08-19T02:29:26.642Z,100478.08
2018-08-19T02:31:59.288Z,100478.63
2018-08-19T02:34:31.708Z,100338.35
2018-08-19T02:37:07.139Z,100479.58
2018-08-19T02:39:39.735Z,100481.34
2018-08-19T02:42:22.686Z,100480.53
2018-08-19T02:44:52.796Z,100478.33
2018-08-19T02:47:21.355Z,100481.05
2018-08-19T02:49:49.922Z,100470.95
2018-08-19T02:52:31.610Z,100474.15
2018-08-19T02:55:01.444Z,100471.16
2018-08-19T02:57:34.221Z,100477.45
2018-08-19T03:00:03.862Z,100472.70
2018-08-19T03:02:34.225Z,100462.56
2018-08-19T03:05:12.089Z,100463.48
2018-08-19T03:07:40.855Z,100473.28
2018-08-19T03:10:11.472Z,100345.11
2018-08-19T03:12:40.779Z,100464.95
2018-08-19T03:15:10.849Z,100465.87
2018-08-19T03:17:39.751Z,100465.94
2018-08-19T03:20:10.191Z,100470.36
2018-08-19T03:22:38.783Z,100467.73
2018-08-19T03:25:07.939Z,100466.92
2018-08-19T03:27:36.446Z,100466.11
2018-08-19T03:30:09.307Z,100458.70
2018-08-19T03:32:40.876Z,100456.14
2018-08-19T03:35:14.720Z,100458.39
2018-08-19T03:37:43.214Z,100456.28
2018-08-19T03:40:11.786Z,100465.97
2018-08-19T03:42:40.356Z,100464.23
2018-08-19T03:45:14.000Z,100465.16
2018-08-19T03:47:42.552Z,100462.12
2018-08-19T03:50:16.361Z,100463.55
2018-08-19T03:52:45.219Z,100460.93
2018-08-19T03:55:19.793Z,100460.55
2018-08-19T03:57:48.834Z,100458.95
2018-08-19T04:00:18.685Z,100463.87
2018-08-19T04:02:47.246Z,100464.83
2018-08-19T04:05:15.849Z,100461.36
2018-08-19T04:07:45.084Z,100462.27
2018-08-19T04:10:14.022Z,100460.64
2018-08-19T04:12:42.638Z,100463.31
2018-08-19T04:15:11.615Z,100464.67
2018-08-19T04:17:40.132Z,100464.23
2018-08-19T04:20:08.794Z,100458.93
2018-08-19T04:22:37.441Z,100458.42
2018-08-19T04:25:05.967Z,100458.42
2018-08-19T04:27:34.602Z,100218.86
2018-08-19T04:30:03.141Z,100462.02
2018-08-19T04:32:32.441Z,100470.45
2018-08-19T04:35:01.903Z,100465.17
2018-08-19T04:37:30.556Z,100466.47
2018-08-19T04:40:00.052Z,100469.09
2018-08-19T04:42:28.603Z,100462.50
2018-08-19T04:44:57.109Z,100466.47
2018-08-19T04:47:28.738Z,100466.50
2018-08-19T04:49:57.339Z,100465.15
2018-08-19T04:52:26.059Z,100462.47
2018-08-19T04:54:55.738Z,100464.10
2018-08-19T04:57:24.255Z,100464.89
2018-08-19T04:59:52.782Z,100469.65
2018-08-19T05:02:21.653Z,100467.79
2018-08-19T05:04:50.073Z,100465.04
2018-08-19T05:07:18.623Z,100467.52
2018-08-19T05:09:47.224Z,100465.19
2018-08-19T05:12:15.826Z,100471.20
2018-08-19T05:14:44.472Z,100476.88
2018-08-19T05:17:13.884Z,100464.00
2018-08-19T05:19:42.417Z,100462.95
2018-08-19T05:22:13.384Z,100466.34
2018-08-19T05:24:42.438Z,100459.09
2018-08-19T05:27:10.937Z,100465.15
2018-08-19T05:29:39.520Z,100459.64
2018-08-19T05:32:12.414Z,100470.37
2018-08-19T05:34:42.120Z,100464.48
2018-08-19T05:37:10.682Z,100470.05
2018-08-19T05:39:45.046Z,100471.11
2018-08-19T05:42:14.120Z,100472.66
2018-08-19T05:44:43.295Z,100475.06
2018-08-19T05:47:15.403Z,100472.62
2018-08-19T05:49:45.036Z,100466.61
2018-08-19T05:52:18.803Z,100479.58
2018-08-19T05:54:54.775Z,100465.15
2018-08-19T05:57:23.339Z,100471.95
2018-08-19T05:59:53.223Z,100472.00
2018-08-19T06:02:32.874Z,100465.88
2018-08-19T06:05:02.637Z,100466.36
2018-08-19T06:07:31.625Z,100460.50
2018-08-19T06:10:00.144Z,100460.72
2018-08-19T06:12:28.748Z,100465.42
2018-08-19T06:14:58.840Z,100462.81
2018-08-19T06:17:27.337Z,100460.34
2018-08-19T06:19:55.852Z,100463.61
2018-08-19T06:22:29.534Z,100467.08
2018-08-19T06:24:58.140Z,100464.52
2018-08-19T06:27:30.787Z,100467.15
2018-08-19T06:29:59.272Z,100457.31
2018-08-19T06:32:33.296Z,100452.64
2018-08-19T06:35:01.993Z,100448.75
2018-08-19T06:37:30.435Z,100453.11
2018-08-19T06:39:59.891Z,100459.28
2018-08-19T06:42:28.510Z,100455.69
2018-08-19T06:44:57.150Z,100457.03
2018-08-19T06:47:25.754Z,100455.80
2018-08-19T06:49:59.462Z,100458.56
2018-08-19T06:52:28.187Z,100453.05
2018-08-19T06:54:56.931Z,100456.02
2018-08-19T06:57:28.765Z,100448.93
2018-08-19T06:59:57.454Z,100449.01
2018-08-19T07:02:25.939Z,100451.72
2018-08-19T07:04:55.092Z,100451.03
2018-08-19T07:07:23.692Z,100439.52
2018-08-19T07:09:52.257Z,100448.24
2018-08-19T07:12:22.664Z,100448.77
2018-08-19T07:14:51.364Z,100453.88
2018-08-19T07:17:20.225Z,100454.73
2018-08-19T07:19:48.903Z,100455.86
2018-08-19T07:22:19.777Z,100457.70
2018-08-19T07:24:48.330Z,100456.83
2018-08-19T07:27:16.755Z,100458.93
2018-08-19T07:29:45.355Z,100453.47
2018-08-19T07:32:14.158Z,100450.75
2018-08-19T07:34:42.705Z,100453.23
2018-08-19T07:37:11.257Z,100454.52
2018-08-19T07:39:45.980Z,100451.93
2018-08-19T07:42:14.664Z,100455.14
2018-08-19T07:44:43.115Z,100452.98
2018-08-19T07:47:11.565Z,100445.97
2018-08-19T07:49:40.038Z,100453.56
2018-08-19T07:52:08.517Z,100453.14
2018-08-19T07:54:36.960Z,100457.83
2018-08-19T07:57:10.832Z,100451.45
2018-08-19T07:59:39.363Z,100453.50
2018-08-19T08:02:08.080Z,100450.40
2018-08-19T08:04:41.875Z,100448.91
2018-08-19T08:07:10.838Z,100446.27
2018-08-19T08:09:40.004Z,100449.18
2018-08-19T08:12:08.604Z,100452.48
2018-08-19T08:14:38.465Z,100445.16
2018-08-19T08:17:08.242Z,100451.42
2018-08-19T08:19:36.871Z,100450.56
2018-08-19T08:22:10.987Z,100457.03
2018-08-19T08:24:40.081Z,100450.00
2018-08-19T08:27:08.657Z,100446.01
2018-08-19T08:29:37.175Z,100450.54
2018-08-19T08:32:06.108Z,100448.34
2018-08-19T08:34:34.705Z,100449.01
2018-08-19T08:37:05.376Z,100442.42
2018-08-19T08:39:35.152Z,100450.06
2018-08-19T08:42:03.711Z,100454.20
2018-08-19T08:44:32.447Z,100442.05
2018-08-19T08:47:05.235Z,100439.98
2018-08-19T08:49:38.895Z,100445.33
2018-08-19T08:52:16.526Z,100441.98
2018-08-19T08:54:55.924Z,100437.05
2018-08-19T08:57:26.204Z,100449.96
2018-08-19T08:59:54.899Z,100443.36
2018-08-19T09:02:23.606Z,100449.38
2018-08-19T09:04:53.446Z,100445.89
2018-08-19T09:07:22.088Z,100446.61
2018-08-19T09:09:50.907Z,100435.25
2018-08-19T09:12:29.491Z,100439.03
2018-08-19T09:14:58.081Z,100432.89
2018-08-19T09:17:26.756Z,100429.77
2018-08-19T09:19:55.359Z,100427.72
2018-08-19T09:22:23.975Z,100440.00
2018-08-19T09:24:52.577Z,100439.64
2018-08-19T09:27:21.090Z,100432.12
2018-08-19T09:29:49.687Z,100427.28
2018-08-19T09:32:18.264Z,100428.40
2018-08-19T09:34:46.819Z,100420.86
2018-08-19T09:37:15.406Z,100428.29
2018-08-19T09:39:44.017Z,100414.06
2018-08-19T09:42:13.315Z,100415.70
2018-08-19T09:44:42.989Z,100422.80
2018-08-19T09:47:11.567Z,100424.02
2018-08-19T09:49:40.092Z,100424.81
2018-08-19T09:52:08.622Z,100423.13
2018-08-19T09:54:38.081Z,100421.38
2018-08-19T09:57:07.492Z,100412.78
2018-08-19T09:59:36.236Z,100416.59
2018-08-19T10:02:09.247Z,100408.34
2018-08-19T10:04:37.864Z,100407.90
2018-08-19T10:07:11.413Z,100397.83
2018-08-19T10:09:40.003Z,100400.22
2018-08-19T10:12:09.428Z,100403.27
2018-08-19T10:14:38.003Z,100406.10
2018-08-19T10:17:06.700Z,100389.30
2018-08-19T10:19:35.405Z,100387.23
2018-08-19T10:22:03.962Z,100385.45
2018-08-19T10:24:33.539Z,100377.67
2018-08-19T10:27:02.181Z,100375.72
2018-08-19T10:29:30.781Z,100375.53
2018-08-19T10:32:02.875Z,100386.72
2018-08-19T10:34:36.041Z,100386.90
2018-08-19T10:37:05.249Z,100380.34
2018-08-19T10:39:33.804Z,100377.03
2018-08-19T10:42:20.399Z,100367.91
2018-08-19T10:44:50.247Z,100364.12
2018-08-19T10:47:19.620Z,100356.46
2018-08-19T10:49:54.190Z,100358.11
2018-08-19T10:52:26.253Z,100356.05
2018-08-19T10:54:55.868Z,100350.53
2018-08-19T10:57:24.357Z,100348.17
2018-08-19T10:59:55.619Z,100333.98
2018-08-19T11:02:24.410Z,100339.61
2018-08-19T11:04:56.559Z,100341.77
2018-08-19T11:07:25.028Z,100339.81
2018-08-19T11:10:08.732Z,100346.23
2018-08-19T11:12:37.196Z,100331.86
2018-08-19T11:15:11.467Z,100341.30
2018-08-19T11:17:39.942Z,100337.80
2018-08-19T11:20:08.463Z,100343.97
2018-08-19T11:22:36.931Z,100338.77
2018-08-19T11:25:06.180Z,100331.17
2018-08-19T11:27:34.707Z,100324.89
2018-08-19T11:30:03.983Z,100327.48
2018-08-19T11:32:36.266Z,100318.00
2018-08-19T11:35:05.583Z,100314.24
2018-08-19T11:37:34.036Z,100309.08
2018-08-19T11:40:02.589Z,100298.95
2018-08-19T11:42:31.180Z,100294.62
2018-08-19T11:44:59.713Z,100295.27
2018-08-19T11:47:28.163Z,100296.75
2018-08-19T11:49:56.784Z,100290.17
2018-08-19T11:52:25.286Z,100288.37
2018-08-19T11:54:53.788Z,100295.55
2018-08-19T11:57:23.064Z,100279.09
2018-08-19T11:59:52.150Z,100284.42
2018-08-19T12:02:22.917Z,100273.63
2018-08-19T12:04:51.513Z,100283.73
2018-08-19T12:07:20.355Z,100282.19
2018-08-19T12:09:55.907Z,100281.88
2018-08-19T12:12:40.650Z,100272.20
2018-08-19T12:15:09.192Z,100280.83
2018-08-19T12:17:37.711Z,100268.72
2018-08-19T12:20:06.819Z,100268.02
2018-08-19T12:22:35.437Z,100267.77
2018-08-19T12:25:03.873Z,100257.59
2018-08-19T12:27:32.441Z,100258.04
2018-08-19T12:30:06.157Z,100261.84
2018-08-19T12:32:34.924Z,100259.31
2018-08-19T12:35:03.428Z,100258.49
2018-08-19T12:37:33.195Z,100258.63
2018-08-19T12:40:02.161Z,100246.87
2018-08-19T12:42:31.638Z,100251.05
2018-08-19T12:45:05.399Z,100242.59
2018-08-19T12:47:33.976Z,100237.37
2018-08-19T12:50:09.559Z,100230.73
2018-08-19T12:52:38.067Z,100231.73
2018-08-19T12:55:08.401Z,100243.70
2018-08-19T12:57:37.923Z,100236.59
2018-08-19T13:00:15.946Z,100233.26
2018-08-19T13:02:45.848Z,100223.59
2018-08-19T13:05:15.423Z,100220.93
2018-08-19T13:07:44.011Z,100216.59
2018-08-19T13:10:12.608Z,100211.95
2018-08-19T13:12:46.406Z,100217.17
2018-08-19T13:15:14.900Z,100210.03
2018-08-19T13:17:43.488Z,100210.17
2018-08-19T13:20:11.946Z,100204.70
2018-08-19T13:22:47.199Z,100209.21
2018-08-19T13:25:15.671Z,100209.78
2018-08-19T13:27:44.140Z,100209.44
2018-08-19T13:30:12.782Z,100201.96
2018-08-19T13:32:41.295Z,100201.77
2018-08-19T13:35:09.796Z,100194.91
2018-08-19T13:37:38.253Z,100190.09
2018-08-19T13:40:08.346Z,100190.09
2018-08-19T13:42:36.841Z,100190.70
2018-08-19T13:45:10.513Z,100177.59
2018-08-19T13:47:40.283Z,100184.36
2018-08-19T13:50:08.882Z,100179.47
2018-08-19T13:52:37.516Z,100169.41
2018-08-19T13:55:10.220Z,100176.61
2018-08-19T13:57:38.674Z,100169.02
2018-08-19T14:00:13.655Z,100156.84
2018-08-19T14:02:42.221Z,100161.53
2018-08-19T14:05:10.894Z,100160.64
2018-08-19T14:07:39.311Z,100156.20
2018-08-19T14:10:09.513Z,100154.62
2018-08-19T14:12:38.143Z,100158.19
2018-08-19T14:15:06.985Z,100151.55
2018-08-19T14:17:35.585Z,100145.27
2018-08-19T14:20:05.037Z,100147.37
2018-08-19T14:22:33.474Z,100148.84
2018-08-19T14:25:01.950Z,100144.08
2018-08-19T14:27:30.408Z,100142.37
2018-08-19T14:29:59.016Z,100148.27
2018-08-19T14:32:34.556Z,100145.34
2018-08-19T14:35:03.982Z,100144.98
2018-08-19T14:37:32.477Z,100143.41
2018-08-19T14:40:01.732Z,100155.51
2018-08-19T14:42:30.225Z,100139.23
2018-08-19T14:44:59.825Z,100143.98
2018-08-19T14:47:29.628Z,100132.11
2018-08-19T14:49:58.990Z,100136.34
2018-08-19T14:52:28.246Z,100137.48
2018-08-19T14:54:56.757Z,100136.77
2018-08-19T14:57:25.449Z,100131.64
2018-08-19T14:59:54.035Z,100133.41
2018-08-19T15:02:22.683Z,100131.34
2018-08-19T15:04:51.164Z,100124.98
2018-08-19T15:07:19.734Z,100121.34
2018-08-19T15:09:50.018Z,100131.41
2018-08-19T15:12:24.624Z,100118.66
2018-08-19T15:14:53.668Z,100113.88
2018-08-19T15:17:22.260Z,100111.69
2018-08-19T15:19:55.339Z,100116.36
2018-08-19T15:22:23.842Z,100115.80
2018-08-19T15:24:52.745Z,100109.28
2018-08-19T15:27:21.354Z,100101.45
2018-08-19T15:29:51.205Z,100106.03
2018-08-19T15:32:21.794Z,100103.25
2018-08-19T15:34:50.004Z,100096.98
2018-08-19T15:37:18.523Z,100098.58
2018-08-19T15:39:47.466Z,100100.05
2018-08-19T15:42:16.602Z,100094.05
2018-08-19T15:44:45.264Z,100098.89
2018-08-19T15:47:14.088Z,100088.69
2018-08-19T15:49:42.640Z,100097.43
2018-08-19T15:52:11.168Z,99782.73
2018-08-19T15:54:42.641Z,100090.23
2018-08-19T15:57:11.188Z,100097.74
2018-08-19T15:59:39.706Z,100098.86
2018-08-19T16:02:08.264Z,100095.20
2018-08-19T16:04:36.810Z,100088.72
2018-08-19T16:07:05.324Z,100091.97
2018-08-19T16:09:33.929Z,100100.06
2018-08-19T16:12:02.470Z,100079.97
2018-08-19T16:14:33.062Z,100083.30
2018-08-19T16:17:03.006Z,100088.58
2018-08-19T16:19:31.575Z,100083.18
2018-08-19T16:22:00.603Z,100090.08
2018-08-19T16:24:29.359Z,100083.45
2018-08-19T16:26:57.886Z,100085.06
2018-08-19T16:29:26.423Z,100081.25
2018-08-19T16:31:54.951Z,100083.86
2018-08-19T16:34:23.440Z,100082.53
2018-08-19T16:36:51.977Z,99615.50
2018-08-19T16:39:20.532Z,100072.88
2018-08-19T16:41:49.029Z,100067.86
2018-08-19T16:44:17.743Z,100065.43
2018-08-19T16:46:46.393Z,100068.88
2018-08-19T16:49:15.015Z,100070.09
2018-08-19T16:51:43.754Z,100067.30
2018-08-19T16:54:12.320Z,99998.77
2018-08-19T16:56:40.754Z,100070.00
2018-08-19T16:59:09.294Z,100065.81
2018-08-19T17:01:37.823Z,100064.37
2018-08-19T17:04:06.336Z,100053.59
2018-08-19T17:06:36.001Z,100062.17
2018-08-19T17:09:04.877Z,100060.00
2018-08-19T17:11:33.412Z,100054.36
2018-08-19T17:14:01.932Z,100059.14
2018-08-19T17:16:31.374Z,100054.48
2018-08-19T17:18:59.939Z,100058.27
2018-08-19T17:21:28.383Z,100056.31
2018-08-19T17:23:56.867Z,100054.23
2018-08-19T17:26:25.400Z,100056.20
2018-08-19T17:28:53.865Z,100055.92
2018-08-19T17:31:22.445Z,100059.86
2018-08-19T17:33:50.922Z,100058.37
2018-08-19T17:36:33.473Z,100053.60
2018-08-19T17:39:02.025Z,100060.34
2018-08-19T17:41:30.589Z,100061.79
2018-08-19T17:44:02.357Z,100065.83
2018-08-19T17:46:31.007Z,100061.89
2018-08-19T17:48:59.557Z,100066.29
2018-08-19T17:51:33.757Z,100058.20
2018-08-19T17:54:02.356Z,100057.22
2018-08-19T17:56:30.855Z,100057.44
2018-08-19T17:58:59.349Z,100060.12
2018-08-19T18:01:28.021Z,100012.15
2018-08-19T18:03:56.478Z,100066.68
2018-08-19T18:06:25.074Z,100057.39
2018-08-19T18:08:54.172Z,100062.25
2018-08-19T18:11:22.918Z,100063.58
2018-08-19T18:13:51.372Z,100061.73
2018-08-19T18:16:19.881Z,100060.48
2018-08-19T18:18:48.896Z,100060.93
2018-08-19T18:21:17.485Z,100059.20
2018-08-19T18:23:47.763Z,100061.33
2018-08-19T18:26:16.333Z,100064.75
2018-08-19T18:28:46.363Z,100064.22
2018-08-19T18:31:18.243Z,100063.59
2018-08-19T18:33:55.993Z,100063.92
2018-08-19T18:36:25.531Z,100061.95
2018-08-19T18:38:53.995Z,100059.23
2018-08-19T18:41:27.115Z,100063.50
2018-08-19T18:43:58.977Z,100060.78
2018-08-19T18:46:29.045Z,100058.80
2018-08-19T18:49:03.128Z,100059.60
2018-08-19T18:51:32.747Z,100054.33
2018-08-19T18:54:01.483Z,100060.50
2018-08-19T18:56:30.136Z,100055.42
2018-08-19T18:58:58.873Z,100059.78
2018-08-19T19:01:27.322Z,100060.62
2018-08-19T19:03:55.802Z,100060.95
2018-08-19T19:06:24.302Z,100065.67
2018-08-19T19:08:52.790Z,100066.97
2018-08-19T19:11:22.745Z,100068.73
2018-08-19T19:13:51.367Z,100065.03
2018-08-19T19:16:24.849Z,100068.52
2018-08-19T19:18:53.997Z,100066.15
2018-08-19T19:21:22.501Z,100078.45
2018-08-19T19:23:50.914Z,100075.12
2018-08-19T19:26:27.314Z,100072.28
2018-08-19T19:28:56.808Z,100070.77
2018-08-19T19:31:25.317Z,100073.73
2018-08-19T19:34:00.974Z,100070.42
2018-08-19T19:36:30.304Z,100070.25
2018-08-19T19:38:59.251Z,100066.06
2018-08-19T19:41:30.021Z,100073.34
2018-08-19T19:43:58.593Z,100075.86
2018-08-19T19:46:27.114Z,100072.44
2018-08-19T19:48:55.656Z,100071.28
2018-08-19T19:51:24.178Z,100069.88
2018-08-19T19:53:52.681Z,100080.73
2018-08-19T19:56:21.123Z,100073.38
2018-08-19T19:58:50.573Z,100073.59
2018-08-19T20:01:19.175Z,100071.97
2018-08-19T20:03:52.787Z,100071.31
2018-08-19T20:06:21.370Z,100071.99
2018-08-19T20:08:49.967Z,100073.17
2018-08-19T20:11:23.543Z,100083.48
2018-08-19T20:13:52.135Z,100084.67
2018-08-19T20:16:20.817Z,100084.39
2018-08-19T20:18:49.363Z,100082.64
2018-08-19T20:21:23.125Z,100089.55
2018-08-19T20:23:52.741Z,100085.84
2018-08-19T20:26:21.793Z,100088.14
2018-08-19T20:28:51.311Z,100085.27
2018-08-19T20:31:19.774Z,100082.80
2018-08-19T20:33:48.267Z,100085.69
2018-08-19T20:36:16.747Z,100084.06
2018-08-19T20:38:45.235Z,100086.45
2018-08-19T20:41:13.707Z,100089.34
2018-08-19T20:43:42.189Z,100090.39
2018-08-19T20:46:10.645Z,100090.69
2018-08-19T20:48:39.209Z,100089.56
2018-08-19T20:51:07.730Z,100088.80
2018-08-19T20:53:36.408Z,100091.28
2018-08-19T20:56:04.892Z,100098.56
2018-08-19T20:58:33.342Z,100092.45
2018-08-19T21:01:01.875Z,100092.16
2018-08-19T21:03:30.419Z,100097.31
2018-08-19T21:05:58.884Z,100097.14
2018-08-19T21:08:27.357Z,100102.70
2018-08-19T21:10:55.814Z,100096.68
2018-08-19T21:13:24.417Z,100106.22
2018-08-19T21:15:55.058Z,100110.03
2018-08-19T21:18:23.583Z,100110.61
2018-08-19T21:20:53.397Z,100112.53
2018-08-19T21:23:21.924Z,100121.23
2018-08-19T21:25:55.800Z,100121.41
2018-08-19T21:28:24.275Z,100121.22
2018-08-19T21:30:52.814Z,100119.20
2018-08-19T21:33:21.309Z,100117.58
2018-08-19T21:35:52.289Z,100122.66
2018-08-19T21:38:20.825Z,100127.42
2018-08-19T21:40:50.105Z,100124.37
2018-08-19T21:43:18.606Z,100122.35
2018-08-19T21:45:47.162Z,100127.79
2018-08-19T21:48:16.587Z,100126.07
2018-08-19T21:50:45.136Z,100123.02
2018-08-19T21:53:15.033Z,100121.09
2018-08-19T21:55:44.725Z,100124.07
2018-08-19T21:58:13.262Z,100122.56
2018-08-19T22:00:44.449Z,100123.41
2018-08-19T22:03:20.097Z,100118.27
2018-08-19T22:05:49.949Z,100115.02
2018-08-19T22:08:18.563Z,100121.97
2018-08-19T22:10:48.171Z,100110.80
2018-08-19T22:13:16.694Z,100113.48
2018-08-19T22:15:46.011Z,100113.56
2018-08-19T22:18:16.943Z,100111.95
2018-08-19T22:20:58.361Z,100115.09
2018-08-19T22:23:35.036Z,100110.41
2018-08-19T22:26:03.695Z,100113.47
2018-08-19T22:28:32.531Z,100113.84
2018-08-19T22:31:11.016Z,100118.27
2018-08-19T22:33:39.525Z,100112.42
2018-08-19T22:36:08.106Z,100118.83
2018-08-19T22:38:36.653Z,100114.73
2018-08-19T22:41:05.145Z,100113.66
2018-08-19T22:43:33.708Z,100106.41
2018-08-19T22:48:46.132Z,100109.27
2018-08-19T22:51:15.934Z,100112.33
2018-08-19T22:53:44.522Z,100111.75
2018-08-19T22:56:13.128Z,100121.03
2018-08-19T22:58:41.642Z,100115.67
2018-08-19T23:01:10.153Z,100118.27
2018-08-19T23:03:38.688Z,100119.11
2018-08-19T23:06:07.331Z,100117.39
2018-08-19T23:08:35.846Z,100108.40
2018-08-19T23:11:04.998Z,100108.78
2018-08-19T23:13:44.776Z,100105.64
2018-08-19T23:16:13.736Z,100101.33
2018-08-19T23:18:42.909Z,100103.55
2018-08-19T23:21:11.586Z,100103.62
2018-08-19T23:23:40.088Z,100101.03
2018-08-19T23:26:08.497Z,100105.92
2018-08-19T23:28:37.033Z,100100.95
2018-08-19T23:31:05.459Z,100102.78
2018-08-19T23:33:33.964Z,100101.91
2018-08-19T23:36:02.414Z,100101.99
2018-08-19T23:38:30.950Z,100102.38
2018-08-19T23:40:59.450Z,100098.27
2018-08-19T23:43:27.925Z,100099.23
2018-08-19T23:45:56.384Z,100099.52
2018-08-19T23:48:24.871Z,100099.61
2018-08-19T23:50:53.385Z,100100.95
2018-08-19T23:53:21.880Z,100106.22
2018-08-19T23:55:50.373Z,100098.94
2018-08-19T23:58:18.837Z,100099.91
